| time (UTC) | temp C | wind direction | speed KPH | gust KPH | rain 1hr cm | rain 24hr cm | rain mn cm | humidity % | barometer mb |
| 20260508222042 | 28 | 4 | 9.7 | 14.5 | 0.00 | 0.00 | 0.00 | 17 | 1013.5 |
| 20260508221538 | 28 | 46 | 3.2 | 12.9 | 0.00 | 0.00 | 0.00 | 17 | 1013.3 |
| 20260508221033 | 28 | 44 | 8.0 | 16.1 | 0.00 | 0.00 | 0.00 | 17 | 1013.3 |
| 20260508220531 | 28 | 57 | 17.7 | 25.7 | 0.00 | 0.00 | 0.00 | 16 | 1013.3 |
| 20260508220027 | 28 | 49 | 14.5 | 24.1 | 0.00 | 0.00 | 0.00 | 17 | 1013.5 |
| 20260508215524 | 28 | 49 | 9.7 | 22.5 | 0.00 | 0.00 | 0.00 | 17 | 1013.3 |
| 20260508215020 | 29 | 62 | 9.7 | 12.9 | 0.00 | 0.00 | 0.00 | 16 | 1013.6 |
| 20260508214518 | 28 | 50 | 8.0 | 22.5 | 0.00 | 0.00 | 0.00 | 17 | 1013.3 |
| 20260508214014 | 29 | 251 | 3.2 | 9.7 | 0.00 | 0.00 | 0.00 | 16 | 1013.6 |
| 20260508213512 | 29 | 23 | 17.7 | 24.1 | 0.00 | 0.00 | 0.00 | 16 | 1013.7 |
| 20260508213007 | 28 | 52 | 8.0 | 16.1 | 0.00 | 0.00 | 0.00 | 16 | 1013.5 |
| 20260508212503 | 28 | 57 | 6.4 | 11.3 | 0.00 | 0.00 | 0.00 | 16 | 1013.6 |
| 20260508212000 | 29 | 329 | 6.4 | 11.3 | 0.00 | 0.00 | 0.00 | 16 | 1013.6 |
| 20260508211456 | 28 | 56 | 9.7 | 11.3 | 0.00 | 0.00 | 0.00 | 16 | 1013.7 |
| 20260508210953 | 29 | 345 | 6.4 | 11.3 | 0.00 | 0.00 | 0.00 | 16 | 1013.7 |
| 20260508210449 | 28 | 351 | 6.4 | 9.7 | 0.00 | 0.00 | 0.00 | 17 | 1013.8 |
| 20260508205945 | 28 | 9 | 16.1 | 22.5 | 0.00 | 0.00 | 0.00 | 16 | 1013.6 |
| 20260508205443 | 28 | 33 | 1.6 | 6.4 | 0.00 | 0.00 | 0.00 | 17 | 1013.8 |
| 20260508204939 | 28 | 47 | 6.4 | 12.9 | 0.00 | 0.00 | 0.00 | 17 | 1013.9 |
| 20260508204437 | 29 | 341 | 9.7 | 12.9 | 0.00 | 0.00 | 0.00 | 17 | 1013.9 |
| 20260508203932 | 28 | 326 | 8.0 | 33.8 | 0.00 | 0.00 | 0.00 | 17 | 1013.8 |
| 20260508203428 | 28 | 38 | 6.4 | 14.5 | 0.00 | 0.00 | 0.00 | 17 | 1014.1 |
| 20260508202924 | 29 | 46 | 20.9 | 27.4 | 0.00 | 0.00 | 0.00 | 16 | 1013.9 |
| 20260508202422 | 28 | 319 | 8.0 | 14.5 | 0.00 | 0.00 | 0.00 | 16 | 1014.1 |
| 20260508201918 | 28 | 332 | 11.3 | 22.5 | 0.00 | 0.00 | 0.00 | 16 | 1014.0 |
| 20260508201415 | 28 | 328 | 3.2 | 11.3 | 0.00 | 0.00 | 0.00 | 17 | 1014.1 |
| 20260508200912 | 28 | 336 | 4.8 | 14.5 | 0.00 | 0.00 | 0.00 | 17 | 1014.0 |
| 20260508200409 | 28 | 339 | 6.4 | 16.1 | 0.00 | 0.00 | 0.00 | 16 | 1013.9 |
| 20260508195904 | 28 | 69 | 9.7 | 24.1 | 0.00 | 0.00 | 0.00 | 17 | 1014.1 |
| 20260508195401 | 28 | 342 | 3.2 | 11.3 | 0.00 | 0.00 | 0.00 | 17 | 1014.0 |
| 20260508194857 | 28 | 45 | 4.8 | 16.1 | 0.00 | 0.00 | 0.00 | 16 | 1013.9 |
| 20260508194354 | 28 | 354 | 1.6 | 22.5 | 0.00 | 0.00 | 0.00 | 17 | 1014.1 |
| 20260508193851 | 28 | 14 | 9.7 | 20.9 | 0.00 | 0.00 | 0.00 | 16 | 1014.2 |
| 20260508193348 | 28 | 51 | 4.8 | 9.7 | 0.00 | 0.00 | 0.00 | 16 | 1014.0 |
| 20260508192844 | 28 | 6 | 3.2 | 9.7 | 0.00 | 0.00 | 0.00 | 16 | 1014.1 |
| 20260508192341 | 28 | 358 | 8.0 | 12.9 | 0.00 | 0.00 | 0.00 | 17 | 1014.1 |
| 20260508191838 | 28 | 71 | 4.8 | 12.9 | 0.00 | 0.00 | 0.00 | 16 | 1014.1 |
| 20260508191336 | 28 | 302 | 6.4 | 11.3 | 0.00 | 0.00 | 0.00 | 16 | 1014.2 |
| 20260508190832 | 28 | 295 | 9.7 | 16.1 | 0.00 | 0.00 | 0.00 | 17 | 1014.4 |
| 20260508190329 | 28 | 314 | 9.7 | 20.9 | 0.00 | 0.00 | 0.00 | 16 | 1014.2 |
| 20260508185825 | 28 | 67 | 0.0 | 20.9 | 0.00 | 0.00 | 0.00 | 17 | 1014.2 |
| 20260508185323 | 28 | 339 | 8.0 | 17.7 | 0.00 | 0.00 | 0.00 | 17 | 1014.1 |
| 20260508184820 | 27 | 284 | 6.4 | 9.7 | 0.00 | 0.00 | 0.00 | 18 | 1014.5 |
| 20260508184317 | 27 | 295 | 6.4 | 16.1 | 0.00 | 0.00 | 0.00 | 18 | 1014.4 |
| 20260508183814 | 27 | 263 | 3.2 | 12.9 | 0.00 | 0.00 | 0.00 | 17 | 1014.7 |
| 20260508183311 | 27 | 334 | 3.2 | 11.3 | 0.00 | 0.00 | 0.00 | 18 | 1014.7 |
| 20260508182806 | 27 | 269 | 3.2 | 6.4 | 0.00 | 0.00 | 0.00 | 17 | 1014.7 |
| 20260508182306 | 27 | 313 | 6.4 | 9.7 | 0.00 | 0.00 | 0.00 | 18 | 1014.7 |
| 20260508181759 | 27 | 285 | 6.4 | 9.7 | 0.00 | 0.00 | 0.00 | 18 | 1014.9 |
| 20260508181256 | 27 | 182 | 4.8 | 6.4 | 0.00 | 0.00 | 0.00 | 18 | 1014.8 |
| 20260508180753 | 27 | 319 | 0.0 | 16.1 | 0.00 | 0.00 | 0.00 | 18 | 1014.9 |
| 20260508180250 | 27 | 342 | 8.0 | 11.3 | 0.00 | 0.00 | 0.00 | 19 | 1014.9 |
| 20260508175746 | 26 | 318 | 11.3 | 14.5 | 0.00 | 0.00 | 0.00 | 20 | 1015.3 |
| 20260508175242 | 27 | 304 | 8.0 | 12.9 | 0.00 | 0.00 | 0.00 | 20 | 1015.3 |
| 20260508174741 | 27 | 288 | 3.2 | 9.7 | 0.00 | 0.00 | 0.00 | 20 | 1015.0 |
| 20260508174238 | 27 | 18 | 1.6 | 9.7 | 0.00 | 0.00 | 0.00 | 20 | 1015.2 |
| 20260508173734 | 26 | 350 | 3.2 | 4.8 | 0.00 | 0.00 | 0.00 | 22 | 1015.3 |
| 20260508173230 | 26 | 246 | 4.8 | 9.7 | 0.00 | 0.00 | 0.00 | 21 | 1015.3 |
| 20260508172727 | 26 | 261 | 1.6 | 4.8 | 0.00 | 0.00 | 0.00 | 23 | 1015.5 |
| 20260508172224 | 25 | 195 | 0.0 | 4.8 | 0.00 | 0.00 | 0.00 | 24 | 1015.5 |
| 20260508171720 | 25 | 317 | 6.4 | 11.3 | 0.00 | 0.00 | 0.00 | 24 | 1015.6 |
| 20260508171217 | 25 | 316 | 4.8 | 16.1 | 0.00 | 0.00 | 0.00 | 25 | 1015.7 |
| 20260508170714 | 25 | 258 | 0.0 | 4.8 | 0.00 | 0.00 | 0.00 | 24 | 1015.5 |
| 20260508170212 | 25 | 326 | 8.0 | 12.9 | 0.00 | 0.00 | 0.00 | 24 | 1015.8 |
| 20260508165708 | 25 | 228 | 8.0 | 12.9 | 0.00 | 0.00 | 0.00 | 24 | 1015.8 |
| 20260508165206 | 25 | 51 | 6.4 | 11.3 | 0.00 | 0.00 | 0.00 | 25 | 1015.8 |
| 20260508164702 | 25 | 341 | 1.6 | 9.7 | 0.00 | 0.00 | 0.00 | 25 | 1015.7 |
| 20260508164159 | 25 | 295 | 3.2 | 11.3 | 0.00 | 0.00 | 0.00 | 24 | 1015.9 |
| 20260508163656 | 24 | 280 | 4.8 | 9.7 | 0.00 | 0.00 | 0.00 | 25 | 1015.8 |
| 20260508163154 | 24 | 252 | 6.4 | 14.5 | 0.00 | 0.00 | 0.00 | 25 | 1016.1 |
| 20260508162649 | 24 | 244 | 1.6 | 12.9 | 0.00 | 0.00 | 0.00 | 26 | 1016.1 |
| 20260508162146 | 23 | 304 | 4.8 | 12.9 | 0.00 | 0.00 | 0.00 | 27 | 1015.9 |
| 20260508161643 | 23 | 297 | 4.8 | 11.3 | 0.00 | 0.00 | 0.00 | 27 | 1016.1 |
| 20260508161141 | 23 | 299 | 1.6 | 12.9 | 0.00 | 0.00 | 0.00 | 28 | 1016.4 |
| 20260508160639 | 22 | 189 | 6.4 | 11.3 | 0.00 | 0.00 | 0.00 | 28 | 1016.2 |
| 20260508160136 | 22 | 224 | 1.6 | 14.5 | 0.00 | 0.00 | 0.00 | 29 | 1016.4 |
| 20260508155634 | 23 | 262 | 9.7 | 14.5 | 0.00 | 0.00 | 0.00 | 30 | 1016.3 |
| 20260508155130 | 22 | 237 | 3.2 | 14.5 | 0.00 | 0.00 | 0.00 | 32 | 1016.3 |
| 20260508154627 | 22 | 275 | 1.6 | 9.7 | 0.00 | 0.00 | 0.00 | 31 | 1016.4 |
| 20260508154123 | 22 | 310 | 6.4 | 9.7 | 0.00 | 0.00 | 0.00 | 30 | 1016.2 |
| 20260508153620 | 21 | 26 | 3.2 | 9.7 | 0.00 | 0.00 | 0.00 | 33 | 1016.2 |
| 20260508153117 | 21 | 345 | 3.2 | 17.7 | 0.00 | 0.00 | 0.00 | 34 | 1016.4 |
| 20260508152614 | 21 | 2 | 9.7 | 12.9 | 0.00 | 0.00 | 0.00 | 33 | 1016.2 |
| 20260508152109 | 21 | 40 | 4.8 | 11.3 | 0.00 | 0.00 | 0.00 | 38 | 1016.5 |
| 20260508151607 | 20 | 334 | 1.6 | 4.8 | 0.00 | 0.00 | 0.00 | 40 | 1016.5 |
| 20260508151104 | 20 | 306 | 11.3 | 14.5 | 0.00 | 0.00 | 0.00 | 42 | 1016.4 |
| 20260508150601 | 20 | 282 | 6.4 | 9.7 | 0.00 | 0.00 | 0.00 | 45 | 1016.5 |
| 20260508150056 | 20 | 279 | 3.2 | 6.4 | 0.00 | 0.00 | 0.00 | 45 | 1016.1 |
| 20260508145553 | 20 | 309 | 4.8 | 6.4 | 0.00 | 0.00 | 0.00 | 46 | 1016.1 |
| 20260508145049 | 18 | 262 | 3.2 | 11.3 | 0.00 | 0.00 | 0.00 | 49 | 1016.3 |
| 20260508144547 | 18 | 282 | 3.2 | 9.7 | 0.00 | 0.00 | 0.00 | 52 | 1016.3 |
| 20260508144044 | 18 | 228 | 1.6 | 9.7 | 0.00 | 0.00 | 0.00 | 52 | 1016.3 |
| 20260508143542 | 18 | 267 | 3.2 | 9.7 | 0.00 | 0.00 | 0.00 | 54 | 1016.4 |
| 20260508143039 | 17 | 249 | 4.8 | 6.4 | 0.00 | 0.00 | 0.00 | 54 | 1016.6 |
| 20260508142535 | 17 | 259 | 1.6 | 12.9 | 0.00 | 0.00 | 0.00 | 55 | 1016.5 |
| 20260508142032 | 17 | 319 | 3.2 | 11.3 | 0.00 | 0.00 | 0.00 | 58 | 1016.5 |
| 20260508141528 | 16 | 263 | 1.6 | 4.8 | 0.00 | 0.00 | 0.00 | 60 | 1016.5 |
| 20260508141026 | 16 | 290 | 6.4 | 9.7 | 0.00 | 0.00 | 0.00 | 62 | 1016.6 |
| 20260508140523 | 15 | 233 | 6.4 | 11.3 | 0.00 | 0.00 | 0.00 | 63 | 1016.8 |
| 20260508140020 | 15 | 279 | 3.2 | 11.3 | 0.00 | 0.00 | 0.00 | 65 | 1016.6 |
| 20260508135515 | 15 | 289 | 3.2 | 9.7 | 0.00 | 0.00 | 0.00 | 66 | 1016.7 |
| 20260508135012 | 15 | 300 | 3.2 | 9.7 | 0.00 | 0.00 | 0.00 | 67 | 1016.5 |
| 20260508134508 | 14 | 258 | 4.8 | 12.9 | 0.00 | 0.00 | 0.00 | 68 | 1016.4 |
| 20260508134006 | 14 | 231 | 4.8 | 11.3 | 0.00 | 0.00 | 0.00 | 69 | 1016.4 |
| 20260508133502 | 13 | 237 | 3.2 | 9.7 | 0.00 | 0.00 | 0.00 | 71 | 1016.5 |
| 20260508132959 | 13 | 232 | 8.0 | 11.3 | 0.00 | 0.00 | 0.00 | 72 | 1016.1 |
| 20260508132457 | 12 | 234 | 3.2 | 6.4 | 0.00 | 0.00 | 0.00 | 73 | 1016.2 |
| 20260508131954 | 12 | 255 | 6.4 | 6.4 | 0.00 | 0.00 | 0.00 | 74 | 1016.4 |
| 20260508131449 | 11 | 252 | 1.6 | 4.8 | 0.00 | 0.00 | 0.00 | 75 | 1016.3 |
| 20260508130946 | 11 | 273 | 1.6 | 4.8 | 0.00 | 0.00 | 0.00 | 75 | 1016.5 |
| 20260508130443 | 11 | 229 | 3.2 | 4.8 | 0.00 | 0.00 | 0.00 | 76 | 1016.5 |
| 20260508125939 | 11 | 255 | 0.0 | 3.2 | 0.00 | 0.00 | 0.00 | 77 | 1016.4 |
| 20260508125435 | 10 | 257 | 1.6 | 3.2 | 0.00 | 0.00 | 0.00 | 78 | 1016.4 |
| 20260508124933 | 10 | 253 | 1.6 | 3.2 | 0.00 | 0.00 | 0.00 | 78 | 1016.6 |
| 20260508124431 | 10 | 277 | 3.2 | 6.4 | 0.00 | 0.00 | 0.00 | 80 | 1016.5 |
| 20260508123928 | 10 | 275 | 1.6 | 6.4 | 0.00 | 0.00 | 0.00 | 79 | 1016.3 |
| 20260508123427 | 10 | 244 | 1.6 | 3.2 | 0.00 | 0.00 | 0.00 | 80 | 1015.9 |
| 20260508122923 | 10 | 263 | 1.6 | 3.2 | 0.00 | 0.00 | 0.00 | 80 | 1015.9 |
| 20260508122420 | 9 | 255 | 1.6 | 4.8 | 0.00 | 0.00 | 0.00 | 80 | 1016.2 |
| 20260508121917 | 9 | 249 | 0.0 | 0.0 | 0.00 | 0.00 | 0.00 | 82 | 1016.2 |
| 20260508121415 | 8 | 234 | 0.0 | 3.2 | 0.00 | 0.00 | 0.00 | 83 | 1015.8 |
| 20260508120912 | 8 | 240 | 0.0 | 3.2 | 0.00 | 0.00 | 0.00 | 83 | 1015.9 |
| 20260508120410 | 8 | 213 | 0.0 | 3.2 | 0.00 | 0.00 | 0.00 | 83 | 1016.1 |
| 20260508115907 | 8 | 243 | 1.6 | 3.2 | 0.00 | 0.00 | 0.00 | 82 | 1015.7 |
| 20260508115405 | 8 | 249 | 0.0 | 6.4 | 0.00 | 0.00 | 0.00 | 82 | 1015.6 |
| 20260508114901 | 8 | 252 | 0.0 | 1.6 | 0.00 | 0.00 | 0.00 | 82 | 1015.7 |
| 20260508114358 | 8 | 226 | 1.6 | 4.8 | 0.00 | 0.00 | 0.00 | 82 | 1015.8 |
| 20260508113855 | 8 | 216 | 1.6 | 1.6 | 0.00 | 0.00 | 0.00 | 82 | 1015.9 |
| 20260508113353 | 8 | 240 | 1.6 | 3.2 | 0.00 | 0.00 | 0.00 | 81 | 1015.6 |
| 20260508112849 | 8 | 235 | 3.2 | 3.2 | 0.00 | 0.00 | 0.00 | 81 | 1015.8 |
| 20260508112347 | 8 | 236 | 3.2 | 3.2 | 0.00 | 0.00 | 0.00 | 81 | 1015.9 |
| 20260508111843 | 8 | 232 | 1.6 | 3.2 | 0.00 | 0.00 | 0.00 | 81 | 1015.6 |
| 20260508111340 | 8 | 255 | 1.6 | 3.2 | 0.00 | 0.00 | 0.00 | 80 | 1015.8 |
| 20260508110837 | 9 | 250 | 1.6 | 1.6 | 0.00 | 0.00 | 0.00 | 80 | 1016.1 |
| 20260508110335 | 9 | 245 | 1.6 | 1.6 | 0.00 | 0.00 | 0.00 | 80 | 1015.9 |
| 20260508105835 | 9 | 293 | 0.0 | 4.8 | 0.00 | 0.00 | 0.00 | 79 | 1015.9 |
| 20260508105331 | 10 | 244 | 0.0 | 3.2 | 0.00 | 0.00 | 0.00 | 79 | 1015.9 |
| 20260508104828 | 10 | 248 | 1.6 | 4.8 | 0.00 | 0.00 | 0.00 | 80 | 1015.9 |
| 20260508104325 | 9 | 246 | 1.6 | 3.2 | 0.00 | 0.00 | 0.00 | 80 | 1016.1 |
| 20260508103822 | 9 | 235 | 3.2 | 4.8 | 0.00 | 0.00 | 0.00 | 79 | 1016.3 |
| 20260508103319 | 9 | 233 | 1.6 | 1.6 | 0.00 | 0.00 | 0.00 | 79 | 1016.3 |
| 20260508102817 | 9 | 245 | 1.6 | 3.2 | 0.00 | 0.00 | 0.00 | 78 | 1016.1 |
| 20260508102315 | 10 | 260 | 0.0 | 1.6 | 0.00 | 0.00 | 0.00 | 78 | 1016.1 |
| 20260508101812 | 10 | 251 | 1.6 | 1.6 | 0.00 | 0.00 | 0.00 | 77 | 1016.3 |
| 20260508101309 | 10 | 259 | 0.0 | 3.2 | 0.00 | 0.00 | 0.00 | 77 | 1016.3 |
| 20260508100807 | 10 | 213 | 3.2 | 4.8 | 0.00 | 0.00 | 0.00 | 76 | 1016.1 |
| 20260508100305 | 10 | 248 | 1.6 | 3.2 | 0.00 | 0.00 | 0.00 | 76 | 1016.2 |
| 20260508095800 | 10 | 245 | 1.6 | 9.7 | 0.00 | 0.00 | 0.00 | 75 | 1016.4 |
| 20260508095258 | 10 | 242 | 1.6 | 6.4 | 0.00 | 0.00 | 0.00 | 75 | 1016.2 |
| 20260508094755 | 11 | 225 | 3.2 | 6.4 | 0.00 | 0.00 | 0.00 | 75 | 1016.3 |
| 20260508094252 | 11 | 241 | 3.2 | 11.3 | 0.00 | 0.00 | 0.00 | 74 | 1016.2 |
| 20260508093749 | 11 | 194 | 4.8 | 11.3 | 0.00 | 0.00 | 0.00 | 74 | 1016.2 |
| 20260508093247 | 11 | 241 | 3.2 | 4.8 | 0.00 | 0.00 | 0.00 | 73 | 1016.5 |
| 20260508092743 | 11 | 191 | 9.7 | 12.9 | 0.00 | 0.00 | 0.00 | 73 | 1016.4 |
| 20260508092241 | 11 | 220 | 3.2 | 9.7 | 0.00 | 0.00 | 0.00 | 73 | 1016.5 |
| 20260508091739 | 11 | 234 | 6.4 | 11.3 | 0.00 | 0.00 | 0.00 | 73 | 1016.3 |
| 20260508091236 | 10 | 235 | 3.2 | 6.4 | 0.00 | 0.00 | 0.00 | 73 | 1016.4 |
| 20260508090734 | 10 | 229 | 3.2 | 4.8 | 0.00 | 0.00 | 0.00 | 73 | 1016.5 |
| 20260508090231 | 11 | 245 | 3.2 | 9.7 | 0.00 | 0.00 | 0.00 | 72 | 1016.8 |
| 20260508085727 | 11 | 239 | 3.2 | 9.7 | 0.00 | 0.00 | 0.00 | 71 | 1016.7 |
| 20260508085224 | 11 | 247 | 3.2 | 4.8 | 0.00 | 0.00 | 0.00 | 70 | 1016.8 |
| 20260508084720 | 11 | 197 | 3.2 | 6.4 | 0.00 | 0.00 | 0.00 | 69 | 1016.7 |
| 20260508084218 | 11 | 249 | 3.2 | 9.7 | 0.00 | 0.00 | 0.00 | 69 | 1016.6 |
| 20260508083715 | 11 | 213 | 4.8 | 6.4 | 0.00 | 0.00 | 0.00 | 69 | 1016.6 |
| 20260508083213 | 11 | 237 | 3.2 | 6.4 | 0.00 | 0.00 | 0.00 | 68 | 1016.7 |
| 20260508082707 | 11 | 249 | 4.8 | 6.4 | 0.00 | 0.00 | 0.00 | 67 | 1016.6 |
| 20260508082205 | 11 | 207 | 3.2 | 6.4 | 0.00 | 0.00 | 0.00 | 66 | 1016.8 |
| 20260508081702 | 11 | 170 | 3.2 | 9.7 | 0.00 | 0.00 | 0.00 | 65 | 1016.6 |
| 20260508081159 | 11 | 189 | 3.2 | 4.8 | 0.00 | 0.00 | 0.00 | 65 | 1016.6 |
| 20260508080656 | 11 | 210 | 3.2 | 12.9 | 0.00 | 0.00 | 0.00 | 64 | 1016.7 |
| 20260508080155 | 11 | 212 | 1.6 | 4.8 | 0.00 | 0.00 | 0.00 | 63 | 1017.0 |
| 20260508075650 | 11 | 145 | 4.8 | 11.3 | 0.00 | 0.00 | 0.00 | 63 | 1017.0 |
| 20260508075148 | 11 | 182 | 3.2 | 4.8 | 0.00 | 0.00 | 0.00 | 62 | 1017.0 |
| 20260508074645 | 11 | 123 | 4.8 | 6.4 | 0.00 | 0.00 | 0.00 | 61 | 1017.2 |
| 20260508074142 | 11 | 222 | 1.6 | 11.3 | 0.00 | 0.00 | 0.00 | 60 | 1017.2 |
| 20260508073639 | 11 | 164 | 4.8 | 6.4 | 0.00 | 0.00 | 0.00 | 60 | 1017.0 |
| 20260508073138 | 11 | 157 | 1.6 | 9.7 | 0.00 | 0.00 | 0.00 | 60 | 1017.0 |
| 20260508072633 | 11 | 222 | 3.2 | 6.4 | 0.00 | 0.00 | 0.00 | 59 | 1017.0 |
| 20260508072130 | 11 | 162 | 1.6 | 6.4 | 0.00 | 0.00 | 0.00 | 58 | 1017.1 |
| 20260508071628 | 12 | 170 | 4.8 | 6.4 | 0.00 | 0.00 | 0.00 | 58 | 1017.1 |
| 20260508071126 | 12 | 195 | 4.8 | 9.7 | 0.00 | 0.00 | 0.00 | 57 | 1016.8 |
| 20260508070623 | 12 | 225 | 3.2 | 6.4 | 0.00 | 0.00 | 0.00 | 56 | 1017.0 |
| 20260508070122 | 12 | 230 | 1.6 | 4.8 | 0.00 | 0.00 | 0.00 | 55 | 1017.1 |
| 20260508065618 | 12 | 186 | 4.8 | 6.4 | 0.00 | 0.00 | 0.00 | 55 | 1017.2 |
| 20260508065116 | 12 | 224 | 1.6 | 4.8 | 0.00 | 0.00 | 0.00 | 54 | 1017.1 |
| 20260508064614 | 12 | 217 | 3.2 | 6.4 | 0.00 | 0.00 | 0.00 | 54 | 1017.2 |
| 20260508064112 | 12 | 236 | 1.6 | 4.8 | 0.00 | 0.00 | 0.00 | 54 | 1017.3 |
| 20260508063609 | 12 | 156 | 1.6 | 3.2 | 0.00 | 0.00 | 0.00 | 53 | 1017.1 |
| 20260508063107 | 12 | 212 | 3.2 | 4.8 | 0.00 | 0.00 | 0.00 | 53 | 1017.1 |
| 20260508062604 | 13 | 185 | 1.6 | 3.2 | 0.00 | 0.00 | 0.00 | 53 | 1017.0 |
| 20260508062100 | 13 | 218 | 1.6 | 4.8 | 0.00 | 0.00 | 0.00 | 52 | 1017.0 |
| 20260508061558 | 13 | 172 | 1.6 | 3.2 | 0.00 | 0.00 | 0.00 | 51 | 1017.2 |
| 20260508061055 | 13 | 210 | 1.6 | 4.8 | 0.00 | 0.00 | 0.00 | 51 | 1017.1 |
| 20260508060551 | 13 | 256 | 1.6 | 4.8 | 0.00 | 0.00 | 0.00 | 50 | 1017.3 |
| 20260508060049 | 13 | 224 | 3.2 | 6.4 | 0.00 | 0.00 | 0.00 | 50 | 1017.2 |
| 20260508055545 | 14 | 233 | 3.2 | 4.8 | 0.00 | 0.00 | 0.00 | 49 | 1017.2 |
| 20260508055042 | 14 | 151 | 1.6 | 6.4 | 0.00 | 0.00 | 0.00 | 49 | 1017.4 |
| 20260508054538 | 15 | 251 | 8.0 | 9.7 | 0.00 | 0.00 | 0.00 | 48 | 1017.4 |
| 20260508054036 | 15 | 166 | 3.2 | 9.7 | 0.00 | 0.00 | 0.00 | 47 | 1017.1 |
| 20260508053532 | 15 | 257 | 8.0 | 9.7 | 0.00 | 0.00 | 0.00 | 47 | 1017.3 |
| 20260508053031 | 15 | 171 | 3.2 | 14.5 | 0.00 | 0.00 | 0.00 | 46 | 1017.3 |
| 20260508052527 | 15 | 149 | 4.8 | 9.7 | 0.00 | 0.00 | 0.00 | 46 | 1017.3 |
| 20260508052024 | 15 | 208 | 6.4 | 11.3 | 0.00 | 0.00 | 0.00 | 45 | 1017.2 |
| 20260508051520 | 16 | 150 | 3.2 | 9.7 | 0.00 | 0.00 | 0.00 | 44 | 1017.3 |
| 20260508051015 | 16 | 202 | 4.8 | 6.4 | 0.00 | 0.00 | 0.00 | 44 | 1017.4 |
| 20260508050512 | 16 | 147 | 6.4 | 11.3 | 0.00 | 0.00 | 0.00 | 43 | 1017.5 |
| 20260508050009 | 16 | 173 | 9.7 | 12.9 | 0.00 | 0.00 | 0.00 | 42 | 1017.4 |
| 20260508045505 | 16 | 164 | 4.8 | 11.3 | 0.00 | 0.00 | 0.00 | 42 | 1017.6 |
| 20260508045003 | 16 | 124 | 4.8 | 17.7 | 0.00 | 0.00 | 0.00 | 41 | 1017.5 |
| 20260508044501 | 16 | 161 | 11.3 | 16.1 | 0.00 | 0.00 | 0.00 | 41 | 1017.6 |
| 20260508043955 | 16 | 227 | 11.3 | 14.5 | 0.00 | 0.00 | 0.00 | 40 | 1017.6 |
| 20260508043453 | 16 | 188 | 9.7 | 12.9 | 0.00 | 0.00 | 0.00 | 39 | 1017.8 |
| 20260508042949 | 16 | 167 | 6.4 | 16.1 | 0.00 | 0.00 | 0.00 | 39 | 1017.5 |
| 20260508042447 | 16 | 205 | 6.4 | 11.3 | 0.00 | 0.00 | 0.00 | 38 | 1017.5 |
| 20260508041944 | 16 | 170 | 6.4 | 11.3 | 0.00 | 0.00 | 0.00 | 38 | 1017.9 |
| 20260508041440 | 16 | 202 | 6.4 | 11.3 | 0.00 | 0.00 | 0.00 | 38 | 1017.5 |
| 20260508040937 | 16 | 171 | 3.2 | 11.3 | 0.00 | 0.00 | 0.00 | 38 | 1017.6 |
| 20260508040434 | 16 | 181 | 6.4 | 9.7 | 0.00 | 0.00 | 0.00 | 37 | 1017.5 |
| 20260508035932 | 16 | 204 | 3.2 | 6.4 | 0.00 | 0.00 | 0.00 | 37 | 1017.4 |
| 20260508035429 | 16 | 205 | 4.8 | 9.7 | 0.00 | 0.00 | 0.00 | 37 | 1017.6 |
| 20260508034925 | 17 | 189 | 3.2 | 11.3 | 0.00 | 0.00 | 0.00 | 36 | 1017.3 |
| 20260508034423 | 17 | 158 | 3.2 | 11.3 | 0.00 | 0.00 | 0.00 | 36 | 1017.5 |
| 20260508033919 | 17 | 167 | 6.4 | 11.3 | 0.00 | 0.00 | 0.00 | 35 | 1017.5 |
| 20260508033417 | 17 | 152 | 3.2 | 6.4 | 0.00 | 0.00 | 0.00 | 35 | 1017.4 |
| 20260508032915 | 17 | 192 | 3.2 | 6.4 | 0.00 | 0.00 | 0.00 | 35 | 1017.4 |
| 20260508032412 | 17 | 188 | 8.0 | 11.3 | 0.00 | 0.00 | 0.00 | 34 | 1017.4 |
| 20260508031908 | 18 | 221 | 6.4 | 11.3 | 0.00 | 0.00 | 0.00 | 34 | 1017.3 |
| 20260508031407 | 18 | 166 | 4.8 | 11.3 | 0.00 | 0.00 | 0.00 | 34 | 1017.0 |
| 20260508030902 | 18 | 202 | 6.4 | 11.3 | 0.00 | 0.00 | 0.00 | 33 | 1017.1 |
| 20260508030359 | 18 | 188 | 4.8 | 11.3 | 0.00 | 0.00 | 0.00 | 33 | 1016.8 |
| 20260508025856 | 18 | 158 | 4.8 | 11.3 | 0.00 | 0.00 | 0.00 | 33 | 1016.8 |
| 20260508025352 | 18 | 218 | 4.8 | 9.7 | 0.00 | 0.00 | 0.00 | 32 | 1017.0 |
| 20260508024849 | 18 | 168 | 6.4 | 9.7 | 0.00 | 0.00 | 0.00 | 32 | 1017.0 |
| 20260508024347 | 18 | 238 | 3.2 | 9.7 | 0.00 | 0.00 | 0.00 | 32 | 1016.8 |
| 20260508023843 | 18 | 159 | 4.8 | 9.7 | 0.00 | 0.00 | 0.00 | 32 | 1016.7 |
| 20260508023340 | 18 | 191 | 4.8 | 6.4 | 0.00 | 0.00 | 0.00 | 31 | 1016.6 |
| 20260508022837 | 19 | 129 | 4.8 | 6.4 | 0.00 | 0.00 | 0.00 | 31 | 1016.7 |
| 20260508022332 | 19 | 132 | 4.8 | 9.7 | 0.00 | 0.00 | 0.00 | 31 | 1016.7 |
| 20260508021830 | 20 | 200 | 4.8 | 11.3 | 0.00 | 0.00 | 0.00 | 30 | 1016.4 |
| 20260508021325 | 20 | 186 | 4.8 | 9.7 | 0.00 | 0.00 | 0.00 | 30 | 1016.5 |
| 20260508020822 | 20 | 239 | 3.2 | 9.7 | 0.00 | 0.00 | 0.00 | 29 | 1016.4 |
| 20260508020320 | 20 | 268 | 6.4 | 12.9 | 0.00 | 0.00 | 0.00 | 29 | 1016.3 |
| 20260508015816 | 20 | 194 | 3.2 | 14.5 | 0.00 | 0.00 | 0.00 | 29 | 1016.3 |
| 20260508015314 | 21 | 195 | 6.4 | 12.9 | 0.00 | 0.00 | 0.00 | 28 | 1016.2 |
| 20260508014811 | 21 | 162 | 8.0 | 14.5 | 0.00 | 0.00 | 0.00 | 28 | 1016.3 |
| 20260508014308 | 21 | 175 | 9.7 | 12.9 | 0.00 | 0.00 | 0.00 | 28 | 1016.2 |
| 20260508013803 | 21 | 188 | 6.4 | 12.9 | 0.00 | 0.00 | 0.00 | 27 | 1016.3 |
| 20260508013259 | 21 | 162 | 1.6 | 6.4 | 0.00 | 0.00 | 0.00 | 27 | 1016.2 |
| 20260508012757 | 22 | 216 | 3.2 | 11.3 | 0.00 | 0.00 | 0.00 | 26 | 1016.1 |
| 20260508012254 | 22 | 187 | 6.4 | 6.4 | 0.00 | 0.00 | 0.00 | 25 | 1016.1 |
| 20260508011752 | 22 | 231 | 3.2 | 6.4 | 0.00 | 0.00 | 0.00 | 23 | 1016.2 |
| 20260508011249 | 23 | 164 | 6.4 | 12.9 | 0.00 | 0.00 | 0.00 | 22 | 1016.1 |
| 20260508010746 | 23 | 194 | 8.0 | 11.3 | 0.00 | 0.00 | 0.00 | 21 | 1015.9 |
| 20260508010244 | 23 | 219 | 3.2 | 9.7 | 0.00 | 0.00 | 0.00 | 21 | 1015.8 |
| 20260508005741 | 23 | 232 | 8.0 | 12.9 | 0.00 | 0.00 | 0.00 | 20 | 1016.1 |
| 20260508005238 | 23 | 247 | 3.2 | 6.4 | 0.00 | 0.00 | 0.00 | 20 | 1015.9 |
| 20260508004733 | 23 | 225 | 6.4 | 9.7 | 0.00 | 0.00 | 0.00 | 20 | 1016.1 |
| 20260508004230 | 24 | 265 | 9.7 | 16.1 | 0.00 | 0.00 | 0.00 | 19 | 1015.8 |
| 20260508003726 | 23 | 280 | 6.4 | 12.9 | 0.00 | 0.00 | 0.00 | 20 | 1015.9 |
| 20260508003224 | 24 | 180 | 6.4 | 11.3 | 0.00 | 0.00 | 0.00 | 20 | 1016.1 |
| 20260508002720 | 23 | 227 | 1.6 | 9.7 | 0.00 | 0.00 | 0.00 | 20 | 1016.1 |
| 20260508002218 | 24 | 209 | 3.2 | 12.9 | 0.00 | 0.00 | 0.00 | 20 | 1016.3 |
| 20260508001713 | 24 | 180 | 8.0 | 16.1 | 0.00 | 0.00 | 0.00 | 20 | 1016.1 |
| 20260508001209 | 24 | 242 | 3.2 | 9.7 | 0.00 | 0.00 | 0.00 | 20 | 1016.2 |
| 20260508000706 | 25 | 233 | 3.2 | 11.3 | 0.00 | 0.00 | 0.00 | 20 | 1016.2 |
| 20260508000204 | 24 | 321 | 6.4 | 16.1 | 0.00 | 0.00 | 0.00 | 20 | 1016.1 |
| 20260507235659 | 24 | 236 | 9.7 | 17.7 | 0.00 | 0.00 | 0.00 | 19 | 1016.1 |
| 20260507235157 | 25 | 215 | 8.0 | 20.9 | 0.00 | 0.00 | 0.00 | 19 | 1016.1 |
| 20260507234653 | 25 | 266 | 9.7 | 16.1 | 0.00 | 0.00 | 0.00 | 20 | 1016.1 |
| 20260507234150 | 25 | 263 | 3.2 | 9.7 | 0.00 | 0.00 | 0.00 | 20 | 1016.2 |
| 20260507233647 | 25 | 258 | 1.6 | 12.9 | 0.00 | 0.00 | 0.00 | 20 | 1016.1 |
| 20260507233145 | 24 | 248 | 3.2 | 4.8 | 0.00 | 0.00 | 0.00 | 20 | 1016.2 |
| 20260507232641 | 24 | 215 | 8.0 | 11.3 | 0.00 | 0.00 | 0.00 | 21 | 1016.5 |
| 20260507232139 | 24 | 166 | 9.7 | 17.7 | 0.00 | 0.00 | 0.00 | 21 | 1016.4 |
| 20260507231635 | 24 | 244 | 9.7 | 16.1 | 0.00 | 0.00 | 0.00 | 21 | 1016.3 |
| 20260507231132 | 25 | 218 | 6.4 | 14.5 | 0.00 | 0.00 | 0.00 | 22 | 1016.4 |
| 20260507230628 | 25 | 291 | 4.8 | 12.9 | 0.00 | 0.00 | 0.00 | 22 | 1016.3 |
| 20260507230126 | 25 | 196 | 11.3 | 14.5 | 0.00 | 0.00 | 0.00 | 21 | 1016.3 |
| 20260507225626 | 25 | 255 | 3.2 | 6.4 | 0.00 | 0.00 | 0.00 | 22 | 1016.4 |
| 20260507225123 | 25 | 255 | 6.4 | 9.7 | 0.00 | 0.00 | 0.00 | 23 | 1016.5 |
| 20260507224618 | 25 | 199 | 4.8 | 9.7 | 0.00 | 0.00 | 0.00 | 22 | 1016.5 |
| 20260507224115 | 25 | 225 | 1.6 | 9.7 | 0.00 | 0.00 | 0.00 | 21 | 1016.5 |
| 20260507223611 | 24 | 235 | 6.4 | 9.7 | 0.00 | 0.00 | 0.00 | 23 | 1016.7 |
| 20260507223108 | 24 | 245 | 9.7 | 12.9 | 0.00 | 0.00 | 0.00 | 24 | 1016.5 |
| 20260507222605 | 24 | 226 | 11.3 | 16.1 | 0.00 | 0.00 | 0.00 | 24 | 1016.8 |